createdAt,value
2019-01-27T00:00:04.235Z,2.90
2019-01-27T00:01:04.782Z,2.90
2019-01-27T00:02:04.345Z,3.00
2019-01-27T00:03:04.964Z,2.90
2019-01-27T00:04:05.075Z,2.90
2019-01-27T00:05:04.666Z,2.90
2019-01-27T00:06:04.729Z,2.90
2019-01-27T00:07:04.996Z,2.90
2019-01-27T00:08:05.000Z,2.90
2019-01-27T00:09:04.181Z,2.90
2019-01-27T00:10:04.346Z,2.90
2019-01-27T00:11:04.415Z,2.90
2019-01-27T00:12:04.364Z,2.90
2019-01-27T00:13:04.535Z,2.90
2019-01-27T00:14:04.531Z,2.90
2019-01-27T00:15:04.673Z,3.00
2019-01-27T00:16:04.822Z,2.90
2019-01-27T00:17:05.018Z,3.00
2019-01-27T00:18:05.064Z,2.90
2019-01-27T00:19:04.402Z,2.90
2019-01-27T00:20:04.462Z,2.90
2019-01-27T00:21:04.607Z,2.90
2019-01-27T00:22:04.756Z,3.00
2019-01-27T00:23:05.088Z,3.00
2019-01-27T00:24:05.173Z,3.00
2019-01-27T00:25:04.231Z,3.00
2019-01-27T00:26:04.433Z,3.00
2019-01-27T00:27:04.632Z,3.00
2019-01-27T00:28:04.260Z,3.00
2019-01-27T00:29:09.462Z,3.00
2019-01-27T00:30:04.854Z,3.00
2019-01-27T00:31:05.172Z,3.00
2019-01-27T00:32:05.204Z,3.00
2019-01-27T00:33:04.281Z,3.00
2019-01-27T00:34:04.338Z,3.00
2019-01-27T00:35:04.644Z,3.00
2019-01-27T00:36:04.727Z,3.00
2019-01-27T00:37:04.846Z,3.00
2019-01-27T00:38:05.057Z,3.00
2019-01-27T00:39:05.114Z,3.00
2019-01-27T00:40:04.333Z,3.00
2019-01-27T00:41:04.584Z,3.00
2019-01-27T00:42:05.138Z,3.00
2019-01-27T00:43:04.541Z,3.00
2019-01-27T00:44:04.793Z,3.00
2019-01-27T00:45:05.200Z,3.00
2019-01-27T00:46:04.832Z,3.00
2019-01-27T00:47:05.068Z,3.00
2019-01-27T00:48:04.818Z,3.00
2019-01-27T00:49:10.000Z,3.00
2019-01-27T00:50:04.392Z,3.00
2019-01-27T00:51:04.839Z,3.00
2019-01-27T00:52:04.940Z,3.00
2019-01-27T00:53:04.703Z,3.00
2019-01-27T00:54:04.739Z,3.00
2019-01-27T00:55:04.882Z,3.00
2019-01-27T00:56:04.952Z,3.00
2019-01-27T00:57:05.039Z,3.00
2019-01-27T00:58:04.609Z,3.00
2019-01-27T00:59:05.084Z,3.00
2019-01-27T01:00:04.547Z,3.00
2019-01-27T01:01:04.688Z,3.00
2019-01-27T01:02:04.168Z,3.00
2019-01-27T01:03:04.312Z,3.00
2019-01-27T01:04:04.804Z,3.00
2019-01-27T01:05:04.394Z,3.00
2019-01-27T01:06:04.758Z,3.00
2019-01-27T01:07:04.863Z,3.00
2019-01-27T01:08:05.070Z,3.00
2019-01-27T01:09:04.603Z,3.00
2019-01-27T01:10:05.255Z,3.00
2019-01-27T01:11:04.340Z,3.00
2019-01-27T01:12:04.485Z,3.00
2019-01-27T01:13:04.666Z,3.10
2019-01-27T01:14:04.800Z,3.10
2019-01-27T01:15:04.929Z,3.10
2019-01-27T01:16:04.898Z,3.10
2019-01-27T01:17:05.177Z,3.10
2019-01-27T01:18:04.256Z,3.10
2019-01-27T01:19:04.313Z,3.10
2019-01-27T01:20:04.425Z,3.10
2019-01-27T01:21:04.343Z,3.10
2019-01-27T01:22:04.547Z,3.10
2019-01-27T01:23:04.578Z,3.10
2019-01-27T01:24:04.649Z,3.10
2019-01-27T01:25:04.725Z,3.10
2019-01-27T01:26:04.864Z,3.10
2019-01-27T01:27:05.208Z,3.10
2019-01-27T01:28:04.573Z,3.10
2019-01-27T01:29:09.959Z,3.10
2019-01-27T01:30:04.335Z,3.10
2019-01-27T01:31:04.633Z,3.10
2019-01-27T01:32:04.711Z,3.10
2019-01-27T01:33:04.287Z,3.10
2019-01-27T01:34:04.398Z,3.10
2019-01-27T01:35:04.904Z,3.10
2019-01-27T01:36:05.027Z,3.10
2019-01-27T01:37:04.901Z,3.10
2019-01-27T01:38:05.124Z,3.10
2019-01-27T01:39:04.227Z,3.10
2019-01-27T01:40:04.334Z,3.10
2019-01-27T01:41:04.483Z,3.10
2019-01-27T01:42:04.582Z,3.10
2019-01-27T01:43:04.690Z,3.10
2019-01-27T01:44:04.966Z,3.10
2019-01-27T01:45:05.079Z,3.10
2019-01-27T01:46:04.729Z,3.10
2019-01-27T01:47:04.725Z,3.10
2019-01-27T01:48:04.995Z,3.10
2019-01-27T01:49:10.162Z,3.10
2019-01-27T01:50:04.499Z,3.10
2019-01-27T01:51:04.969Z,3.10
2019-01-27T01:52:04.564Z,3.10
2019-01-27T01:53:04.740Z,3.10
2019-01-27T01:54:04.251Z,3.00
2019-01-27T01:55:04.837Z,3.00
2019-01-27T01:56:04.985Z,3.00
2019-01-27T01:57:05.062Z,3.00
2019-01-27T01:58:05.028Z,3.00
2019-01-27T01:59:04.698Z,3.00
2019-01-27T02:00:04.803Z,3.00
2019-01-27T02:01:04.209Z,3.00
2019-01-27T02:02:05.081Z,3.00
2019-01-27T02:03:04.311Z,3.00
2019-01-27T02:04:04.670Z,3.00
2019-01-27T02:05:05.016Z,3.00
2019-01-27T02:06:05.018Z,3.00
2019-01-27T02:07:05.059Z,3.00
2019-01-27T02:08:05.240Z,3.00
2019-01-27T02:09:04.338Z,3.00
2019-01-27T02:10:04.507Z,3.00
2019-01-27T02:11:04.533Z,3.00
2019-01-27T02:12:04.655Z,3.00
2019-01-27T02:13:04.691Z,3.00
2019-01-27T02:14:04.844Z,3.00
2019-01-27T02:15:04.836Z,3.00
2019-01-27T02:16:04.533Z,3.00
2019-01-27T02:17:05.153Z,3.00
2019-01-27T02:18:04.446Z,3.00
2019-01-27T02:19:04.969Z,3.00
2019-01-27T02:20:04.301Z,3.00
2019-01-27T02:21:04.549Z,3.00
2019-01-27T02:22:04.612Z,3.00
2019-01-27T02:23:04.636Z,3.00
2019-01-27T02:24:05.179Z,3.00
2019-01-27T02:25:04.271Z,3.00
2019-01-27T02:26:04.386Z,3.00
2019-01-27T02:27:04.798Z,3.00
2019-01-27T02:28:04.302Z,3.00
2019-01-27T02:29:09.848Z,3.00
2019-01-27T02:30:05.165Z,3.10
2019-01-27T02:31:04.223Z,3.10
2019-01-27T02:32:04.383Z,3.10
2019-01-27T02:33:04.654Z,3.00
2019-01-27T02:34:05.294Z,3.00
2019-01-27T02:35:04.790Z,3.10
2019-01-27T02:36:04.779Z,3.10
2019-01-27T02:37:05.033Z,3.10
2019-01-27T02:38:05.210Z,3.10
2019-01-27T02:39:04.271Z,3.10
2019-01-27T02:40:04.534Z,3.10
2019-01-27T02:41:04.913Z,3.10
2019-01-27T02:42:04.973Z,3.10
2019-01-27T02:43:04.430Z,3.10
2019-01-27T02:44:04.466Z,3.10
2019-01-27T02:45:04.763Z,3.10
2019-01-27T02:46:04.963Z,3.10
2019-01-27T02:47:05.027Z,3.10
2019-01-27T02:48:04.655Z,3.10
2019-01-27T02:49:04.780Z,3.00
2019-01-27T02:50:04.849Z,3.10
2019-01-27T02:51:04.884Z,3.00
2019-01-27T02:52:04.921Z,3.00
2019-01-27T02:53:05.011Z,3.00
2019-01-27T02:54:05.217Z,3.00
2019-01-27T02:55:04.705Z,3.00
2019-01-27T02:56:05.284Z,3.00
2019-01-27T02:57:04.526Z,3.00
2019-01-27T02:58:04.786Z,3.00
2019-01-27T02:59:04.269Z,3.00
2019-01-27T03:00:04.507Z,3.00
2019-01-27T03:01:04.498Z,3.00
2019-01-27T03:02:04.972Z,3.00
2019-01-27T03:03:04.997Z,3.00
2019-01-27T03:04:04.811Z,3.00
2019-01-27T03:05:09.286Z,3.00
2019-01-27T03:06:04.638Z,3.00
2019-01-27T03:07:05.039Z,3.00
2019-01-27T03:08:04.506Z,3.00
2019-01-27T03:09:04.581Z,3.00
2019-01-27T03:10:05.072Z,3.00
2019-01-27T03:11:04.378Z,3.00
2019-01-27T03:12:04.454Z,3.00
2019-01-27T03:13:04.552Z,3.00
2019-01-27T03:14:04.800Z,3.00
2019-01-27T03:15:04.912Z,3.00
2019-01-27T03:16:05.059Z,3.00
2019-01-27T03:17:04.575Z,3.00
2019-01-27T03:18:04.712Z,3.00
2019-01-27T03:19:05.058Z,3.00
2019-01-27T03:20:04.498Z,3.00
2019-01-27T03:21:04.995Z,3.00
2019-01-27T03:22:04.403Z,3.00
2019-01-27T03:23:04.846Z,3.00
2019-01-27T03:24:04.900Z,3.00
2019-01-27T03:25:05.263Z,3.00
2019-01-27T03:26:04.306Z,3.00
2019-01-27T03:27:04.951Z,3.00
2019-01-27T03:28:05.110Z,3.00
2019-01-27T03:29:04.975Z,3.00
2019-01-27T03:30:05.134Z,3.00
2019-01-27T03:31:04.191Z,3.00
2019-01-27T03:32:04.783Z,3.00
2019-01-27T03:33:04.910Z,3.00
2019-01-27T03:34:04.315Z,3.00
2019-01-27T03:35:04.572Z,3.00
2019-01-27T03:36:04.668Z,3.00
2019-01-27T03:37:05.055Z,3.00
2019-01-27T03:38:04.538Z,3.00
2019-01-27T03:39:04.381Z,3.10
2019-01-27T03:40:04.447Z,3.10
2019-01-27T03:41:04.448Z,3.10
2019-01-27T03:42:04.875Z,3.10
2019-01-27T03:43:04.235Z,3.10
2019-01-27T03:44:04.300Z,3.10
2019-01-27T03:45:04.358Z,3.10
2019-01-27T03:46:04.587Z,3.10
2019-01-27T03:47:05.015Z,3.10
2019-01-27T03:48:05.179Z,3.10
2019-01-27T03:49:04.804Z,3.10
2019-01-27T03:50:05.136Z,3.10
2019-01-27T03:51:04.678Z,3.10
2019-01-27T03:52:04.887Z,3.10
2019-01-27T03:53:04.990Z,3.10
2019-01-27T03:54:04.282Z,3.10
2019-01-27T03:55:04.739Z,3.10
2019-01-27T03:56:04.965Z,3.10
2019-01-27T03:57:05.104Z,3.10
2019-01-27T03:58:04.336Z,3.10
2019-01-27T03:59:09.865Z,3.10
2019-01-27T04:00:04.201Z,3.10
2019-01-27T04:01:04.317Z,3.10
2019-01-27T04:02:04.612Z,3.10
2019-01-27T04:03:04.831Z,3.10
2019-01-27T04:04:04.953Z,3.20
2019-01-27T04:05:04.955Z,3.10
2019-01-27T04:06:04.335Z,3.10
2019-01-27T04:07:04.483Z,3.10
2019-01-27T04:08:04.546Z,3.10
2019-01-27T04:09:04.756Z,3.10
2019-01-27T04:10:04.820Z,3.10
2019-01-27T04:11:04.726Z,3.10
2019-01-27T04:12:04.318Z,3.10
2019-01-27T04:13:04.438Z,3.10
2019-01-27T04:14:04.504Z,3.10
2019-01-27T04:15:04.506Z,3.10
2019-01-27T04:16:04.595Z,3.10
2019-01-27T04:17:04.303Z,3.10
2019-01-27T04:18:04.641Z,3.10
2019-01-27T04:19:04.692Z,3.10
2019-01-27T04:20:04.287Z,3.10
2019-01-27T04:21:04.751Z,3.10
2019-01-27T04:22:04.890Z,3.10
2019-01-27T04:23:04.350Z,3.10
2019-01-27T04:24:04.451Z,3.10
2019-01-27T04:25:04.976Z,3.10
2019-01-27T04:26:05.223Z,3.10
2019-01-27T04:27:04.364Z,3.10
2019-01-27T04:28:04.385Z,3.10
2019-01-27T04:29:09.596Z,3.10
2019-01-27T04:30:04.982Z,3.10
2019-01-27T04:31:05.108Z,3.10
2019-01-27T04:32:04.405Z,3.10
2019-01-27T04:33:04.508Z,3.10
2019-01-27T04:34:04.811Z,3.10
2019-01-27T04:35:05.109Z,3.10
2019-01-27T04:36:04.795Z,3.10
2019-01-27T04:37:05.182Z,3.10
2019-01-27T04:38:04.658Z,3.10
2019-01-27T04:39:04.765Z,3.10
2019-01-27T04:40:04.856Z,3.10
2019-01-27T04:41:04.288Z,3.10
2019-01-27T04:42:04.539Z,3.10
2019-01-27T04:43:04.700Z,3.10
2019-01-27T04:44:04.867Z,3.10
2019-01-27T04:45:05.184Z,3.10
2019-01-27T04:46:04.429Z,3.10
2019-01-27T04:47:04.755Z,3.10
2019-01-27T04:48:05.055Z,3.10
2019-01-27T04:49:09.778Z,3.10
2019-01-27T04:50:05.190Z,3.10
2019-01-27T04:51:04.311Z,3.10
2019-01-27T04:52:04.463Z,3.10
2019-01-27T04:53:04.915Z,3.10
2019-01-27T04:54:05.170Z,3.10
2019-01-27T04:55:04.291Z,3.10
2019-01-27T04:56:05.110Z,3.10
2019-01-27T04:57:04.444Z,3.10
2019-01-27T04:58:05.170Z,3.10
2019-01-27T04:59:04.759Z,3.10
2019-01-27T05:00:05.106Z,3.10
2019-01-27T05:01:04.358Z,3.10
2019-01-27T05:02:04.604Z,3.10
2019-01-27T05:03:04.240Z,3.20
2019-01-27T05:04:04.439Z,3.20
2019-01-27T05:05:05.002Z,3.20
2019-01-27T05:06:04.562Z,3.20
2019-01-27T05:07:05.118Z,3.20
2019-01-27T05:08:04.688Z,3.20
2019-01-27T05:09:04.793Z,3.20
2019-01-27T05:10:04.765Z,3.20
2019-01-27T05:11:04.311Z,3.20
2019-01-27T05:12:04.623Z,3.20
2019-01-27T05:13:04.715Z,3.20
2019-01-27T05:14:04.983Z,3.20
2019-01-27T05:15:04.388Z,3.20
2019-01-27T05:16:04.412Z,3.20
2019-01-27T05:17:04.952Z,3.20
2019-01-27T05:18:05.111Z,3.20
2019-01-27T05:19:04.496Z,3.20
2019-01-27T05:20:04.734Z,3.20
2019-01-27T05:21:04.309Z,3.20
2019-01-27T05:22:04.329Z,3.20
2019-01-27T05:23:04.993Z,3.20
2019-01-27T05:24:04.321Z,3.20
2019-01-27T05:25:05.314Z,3.20
2019-01-27T05:26:04.305Z,3.20
2019-01-27T05:27:04.469Z,3.20
2019-01-27T05:28:04.470Z,3.20
2019-01-27T05:29:10.074Z,3.20
2019-01-27T05:30:04.460Z,3.20
2019-01-27T05:31:04.823Z,3.20
2019-01-27T05:32:05.007Z,3.20
2019-01-27T05:33:05.087Z,3.20
2019-01-27T05:34:04.225Z,3.20
2019-01-27T05:35:04.894Z,3.20
2019-01-27T05:36:05.159Z,3.20
2019-01-27T05:37:05.054Z,3.20
2019-01-27T05:38:04.790Z,3.20
2019-01-27T05:39:04.251Z,3.20
2019-01-27T05:40:04.359Z,3.20
2019-01-27T05:41:04.478Z,3.20
2019-01-27T05:42:04.819Z,3.20
2019-01-27T05:43:05.230Z,3.20
2019-01-27T05:44:05.167Z,3.20
2019-01-27T05:45:04.252Z,3.20
2019-01-27T05:46:04.324Z,3.20
2019-01-27T05:47:05.598Z,3.20
2019-01-27T05:48:04.745Z,3.20
2019-01-27T05:49:04.821Z,3.20
2019-01-27T05:50:04.874Z,3.20
2019-01-27T05:51:04.347Z,3.20
2019-01-27T05:52:04.922Z,3.20
2019-01-27T05:53:04.987Z,3.20
2019-01-27T05:54:04.305Z,3.20
2019-01-27T05:55:04.382Z,3.20
2019-01-27T05:56:04.443Z,3.20
2019-01-27T05:57:05.187Z,3.20
2019-01-27T05:58:04.288Z,3.20
2019-01-27T05:59:04.264Z,3.20
2019-01-27T06:00:04.508Z,3.10
2019-01-27T06:01:05.125Z,3.10
2019-01-27T06:02:05.251Z,3.20
2019-01-27T06:03:04.741Z,3.20
2019-01-27T06:04:05.152Z,3.20
2019-01-27T06:05:05.206Z,3.20
2019-01-27T06:06:04.894Z,3.20
2019-01-27T06:07:05.036Z,3.20
2019-01-27T06:08:05.074Z,3.20
2019-01-27T06:09:04.365Z,3.20
2019-01-27T06:10:04.537Z,3.20
2019-01-27T06:11:04.571Z,3.20
2019-01-27T06:12:04.651Z,3.20
2019-01-27T06:13:04.727Z,3.20
2019-01-27T06:14:04.461Z,3.20
2019-01-27T06:15:04.583Z,3.20
2019-01-27T06:16:05.148Z,3.20
2019-01-27T06:17:04.344Z,3.20
2019-01-27T06:18:04.544Z,3.10
2019-01-27T06:19:05.149Z,3.20
2019-01-27T06:20:04.227Z,3.20
2019-01-27T06:21:04.847Z,3.20
2019-01-27T06:22:05.138Z,3.20
2019-01-27T06:23:04.597Z,3.10
2019-01-27T06:24:04.253Z,3.20
2019-01-27T06:25:04.557Z,3.10
2019-01-27T06:26:04.599Z,3.20
2019-01-27T06:27:05.068Z,3.20
2019-01-27T06:28:05.016Z,3.20
2019-01-27T06:29:04.183Z,3.20
2019-01-27T06:30:09.459Z,3.20
2019-01-27T06:31:04.883Z,3.20
2019-01-27T06:32:04.892Z,3.20
2019-01-27T06:33:04.401Z,3.20
2019-01-27T06:34:04.556Z,3.20
2019-01-27T06:35:04.538Z,3.20
2019-01-27T06:36:04.778Z,3.20
2019-01-27T06:37:04.280Z,3.20
2019-01-27T06:38:04.505Z,3.20
2019-01-27T06:39:05.044Z,3.20
2019-01-27T06:40:04.392Z,3.20
2019-01-27T06:41:04.290Z,3.20
2019-01-27T06:42:04.513Z,3.20
2019-01-27T06:43:04.586Z,3.20
2019-01-27T06:44:04.283Z,3.20
2019-01-27T06:45:04.671Z,3.20
2019-01-27T06:46:04.818Z,3.20
2019-01-27T06:47:04.955Z,3.20
2019-01-27T06:48:05.059Z,3.20
2019-01-27T06:49:04.632Z,3.20
2019-01-27T06:50:10.018Z,3.20
2019-01-27T06:51:04.435Z,3.20
2019-01-27T06:52:04.553Z,3.20
2019-01-27T06:53:04.691Z,3.20
2019-01-27T06:54:04.300Z,3.20
2019-01-27T06:55:04.306Z,3.20
2019-01-27T06:56:04.965Z,3.20
2019-01-27T06:57:04.947Z,3.20
2019-01-27T06:58:04.350Z,3.20
2019-01-27T06:59:04.807Z,3.20
2019-01-27T07:00:05.053Z,3.20
2019-01-27T07:01:04.472Z,3.20
2019-01-27T07:02:05.018Z,3.20
2019-01-27T07:03:05.208Z,3.20
2019-01-27T07:04:04.258Z,3.20
2019-01-27T07:05:04.605Z,3.20
2019-01-27T07:06:04.677Z,3.20
2019-01-27T07:07:04.749Z,3.20
2019-01-27T07:08:05.166Z,3.20
2019-01-27T07:09:05.144Z,3.20
2019-01-27T07:10:05.030Z,3.20
2019-01-27T07:11:04.310Z,3.20
2019-01-27T07:12:04.447Z,3.20
2019-01-27T07:13:04.684Z,3.20
2019-01-27T07:14:04.269Z,3.20
2019-01-27T07:15:04.373Z,3.10
2019-01-27T07:16:04.571Z,3.20
2019-01-27T07:17:04.804Z,3.20
2019-01-27T07:18:04.907Z,3.20
2019-01-27T07:19:04.381Z,3.20
2019-01-27T07:20:04.909Z,3.20
2019-01-27T07:21:04.883Z,3.20
2019-01-27T07:22:04.552Z,3.20
2019-01-27T07:23:04.890Z,3.20
2019-01-27T07:24:05.177Z,3.20
2019-01-27T07:25:04.794Z,3.20
2019-01-27T07:26:05.136Z,3.20
2019-01-27T07:27:04.492Z,3.20
2019-01-27T07:28:04.671Z,3.20
2019-01-27T07:29:04.231Z,3.20
2019-01-27T07:30:04.595Z,3.20
2019-01-27T07:31:04.565Z,3.20
2019-01-27T07:32:05.015Z,3.20
2019-01-27T07:33:05.088Z,3.20
2019-01-27T07:34:04.394Z,3.20
2019-01-27T07:35:04.595Z,3.20
2019-01-27T07:36:05.240Z,3.20
2019-01-27T07:37:05.230Z,3.20
2019-01-27T07:38:09.722Z,3.20
2019-01-27T07:39:05.246Z,3.20
2019-01-27T07:40:04.727Z,3.20
2019-01-27T07:41:04.683Z,3.20
2019-01-27T07:42:04.767Z,3.20
2019-01-27T07:43:04.960Z,3.20
2019-01-27T07:44:04.952Z,3.20
2019-01-27T07:45:04.333Z,3.20
2019-01-27T07:46:04.499Z,3.20
2019-01-27T07:47:05.170Z,3.20
2019-01-27T07:48:04.583Z,3.20
2019-01-27T07:49:04.704Z,3.20
2019-01-27T07:50:04.792Z,3.20
2019-01-27T07:51:05.106Z,3.20
2019-01-27T07:52:04.381Z,3.20
2019-01-27T07:53:04.746Z,3.30
2019-01-27T07:54:04.237Z,3.30
2019-01-27T07:55:04.785Z,3.30
2019-01-27T07:56:04.472Z,3.30
2019-01-27T07:57:04.650Z,3.30
2019-01-27T07:58:09.830Z,3.30
2019-01-27T07:59:04.318Z,3.30
2019-01-27T08:00:04.500Z,3.30
2019-01-27T08:01:04.644Z,3.30
2019-01-27T08:02:04.414Z,3.30
2019-01-27T08:03:04.345Z,3.30
2019-01-27T08:04:04.212Z,3.40
2019-01-27T08:05:04.738Z,3.40
2019-01-27T08:06:04.790Z,3.40
2019-01-27T08:07:04.918Z,3.40
2019-01-27T08:08:04.578Z,3.40
2019-01-27T08:09:04.675Z,3.40
2019-01-27T08:10:05.106Z,3.40
2019-01-27T08:11:04.566Z,3.40
2019-01-27T08:12:04.985Z,3.40
2019-01-27T08:13:04.314Z,3.40
2019-01-27T08:14:04.840Z,3.40
2019-01-27T08:15:05.257Z,3.40
2019-01-27T08:16:04.322Z,3.40
2019-01-27T08:17:04.723Z,3.50
2019-01-27T08:18:04.963Z,3.50
2019-01-27T08:19:04.233Z,3.50
2019-01-27T08:20:04.999Z,3.50
2019-01-27T08:21:04.681Z,3.50
2019-01-27T08:22:04.658Z,3.50
2019-01-27T08:23:04.958Z,3.50
2019-01-27T08:24:04.282Z,3.50
2019-01-27T08:25:04.381Z,3.50
2019-01-27T08:26:04.427Z,3.50
2019-01-27T08:27:04.689Z,3.50
2019-01-27T08:28:04.293Z,3.50
2019-01-27T08:29:05.224Z,3.50
2019-01-27T08:30:05.005Z,3.50
2019-01-27T08:31:05.050Z,3.50
2019-01-27T08:32:05.160Z,3.60
2019-01-27T08:33:04.731Z,3.60
2019-01-27T08:34:05.054Z,3.50
2019-01-27T08:35:04.153Z,3.50
2019-01-27T08:36:04.382Z,3.60
2019-01-27T08:37:04.828Z,3.60
2019-01-27T08:38:04.498Z,3.60
2019-01-27T08:39:04.848Z,3.60
2019-01-27T08:40:05.117Z,3.60
2019-01-27T08:41:05.082Z,3.60
2019-01-27T08:42:05.332Z,3.60
2019-01-27T08:43:04.734Z,3.60
2019-01-27T08:44:04.478Z,3.60
2019-01-27T08:45:04.885Z,3.60
2019-01-27T08:46:04.461Z,3.60
2019-01-27T08:47:04.461Z,3.60
2019-01-27T08:48:05.263Z,3.70
2019-01-27T08:49:04.196Z,3.70
2019-01-27T08:50:04.310Z,3.70
2019-01-27T08:51:04.921Z,3.70
2019-01-27T08:52:04.938Z,3.70
2019-01-27T08:53:04.222Z,3.70
2019-01-27T08:54:04.505Z,3.70
2019-01-27T08:55:04.713Z,3.80
2019-01-27T08:56:04.656Z,3.80
2019-01-27T08:57:04.686Z,3.80
2019-01-27T08:58:05.251Z,3.80
2019-01-27T08:59:05.165Z,3.80
2019-01-27T09:00:04.420Z,3.80
2019-01-27T09:01:04.507Z,3.80
2019-01-27T09:02:04.811Z,3.80
2019-01-27T09:03:05.069Z,3.80
2019-01-27T09:04:04.487Z,3.80
2019-01-27T09:05:05.104Z,3.90
2019-01-27T09:06:04.232Z,3.90
2019-01-27T09:07:04.601Z,3.90
2019-01-27T09:08:05.113Z,4.00
2019-01-27T09:09:04.562Z,4.00
2019-01-27T09:10:05.114Z,4.00
2019-01-27T09:11:04.498Z,4.10
2019-01-27T09:12:04.563Z,4.10
2019-01-27T09:13:10.969Z,4.10
2019-01-27T09:14:04.997Z,4.10
2019-01-27T09:15:04.418Z,4.10
2019-01-27T09:16:04.800Z,4.20
2019-01-27T09:17:05.070Z,4.20
2019-01-27T09:18:05.073Z,4.20
2019-01-27T09:19:04.485Z,4.20
2019-01-27T09:20:04.527Z,4.20
2019-01-27T09:21:05.157Z,4.20
2019-01-27T09:22:04.299Z,4.20
2019-01-27T09:23:04.801Z,4.20
2019-01-27T09:24:04.636Z,4.30
2019-01-27T09:25:04.445Z,4.30
2019-01-27T09:26:05.080Z,4.30
2019-01-27T09:27:04.480Z,4.30
2019-01-27T09:28:04.569Z,4.30
2019-01-27T09:29:09.864Z,4.30
2019-01-27T09:30:04.259Z,4.30
2019-01-27T09:31:04.652Z,4.30
2019-01-27T09:32:04.742Z,4.30
2019-01-27T09:33:04.222Z,4.30
2019-01-27T09:34:04.934Z,4.30
2019-01-27T09:35:04.917Z,4.30
2019-01-27T09:36:04.846Z,4.30
2019-01-27T09:37:04.609Z,4.30
2019-01-27T09:38:04.382Z,4.30
2019-01-27T09:39:05.015Z,4.30
2019-01-27T09:40:04.367Z,4.30
2019-01-27T09:41:04.387Z,4.30
2019-01-27T09:42:04.965Z,4.30
2019-01-27T09:43:04.932Z,4.30
2019-01-27T09:44:04.335Z,4.30
2019-01-27T09:45:04.537Z,4.30
2019-01-27T09:46:05.336Z,4.30
2019-01-27T09:47:05.058Z,4.30
2019-01-27T09:48:04.494Z,4.30
2019-01-27T09:49:05.202Z,4.30
2019-01-27T09:50:04.331Z,4.30
2019-01-27T09:51:04.559Z,4.30
2019-01-27T09:52:05.153Z,4.30
2019-01-27T09:53:04.685Z,4.40
2019-01-27T09:54:04.858Z,4.40
2019-01-27T09:55:04.992Z,4.40
2019-01-27T09:56:04.550Z,4.50
2019-01-27T09:57:04.534Z,4.50
2019-01-27T09:58:05.108Z,4.60
2019-01-27T09:59:04.799Z,4.70
2019-01-27T10:00:04.333Z,4.70
2019-01-27T10:01:04.382Z,4.80
2019-01-27T10:02:04.935Z,4.80
2019-01-27T10:03:04.626Z,4.80
2019-01-27T10:04:05.086Z,4.80
2019-01-27T10:05:04.701Z,4.90
2019-01-27T10:06:05.033Z,4.90
2019-01-27T10:07:04.526Z,4.90
2019-01-27T10:08:05.181Z,4.90
2019-01-27T10:09:04.632Z,4.90
2019-01-27T10:10:04.348Z,5.00
2019-01-27T10:11:04.474Z,5.00
2019-01-27T10:12:04.949Z,5.00
2019-01-27T10:13:05.002Z,5.00
2019-01-27T10:14:04.289Z,5.00
2019-01-27T10:15:04.553Z,5.00
2019-01-27T10:16:04.657Z,5.00
2019-01-27T10:17:04.929Z,5.00
2019-01-27T10:18:05.326Z,5.00
2019-01-27T10:19:04.633Z,5.00
2019-01-27T10:20:04.936Z,5.00
2019-01-27T10:21:04.391Z,5.00
2019-01-27T10:22:05.116Z,5.00
2019-01-27T10:23:05.171Z,5.10
2019-01-27T10:24:04.463Z,5.10
2019-01-27T10:25:04.867Z,5.10
2019-01-27T10:26:05.088Z,5.20
2019-01-27T10:27:05.094Z,5.20
2019-01-27T10:28:04.777Z,5.30
2019-01-27T10:29:04.832Z,5.30
2019-01-27T10:30:04.662Z,5.30
2019-01-27T10:31:05.159Z,5.30
2019-01-27T10:32:04.223Z,5.40
2019-01-27T10:33:04.226Z,5.40
2019-01-27T10:34:04.801Z,5.50
2019-01-27T10:35:04.911Z,5.50
2019-01-27T10:36:05.101Z,5.50
2019-01-27T10:37:11.735Z,5.50
2019-01-27T10:38:05.110Z,5.60
2019-01-27T10:39:05.148Z,5.60
2019-01-27T10:40:09.074Z,5.60
2019-01-27T10:41:05.028Z,5.60
2019-01-27T10:42:04.603Z,5.60
2019-01-27T10:43:04.388Z,5.60
2019-01-27T10:44:04.881Z,5.60
2019-01-27T10:45:04.384Z,5.60
2019-01-27T10:46:09.512Z,5.60
2019-01-27T10:47:04.950Z,5.60
2019-01-27T10:48:05.278Z,5.60
2019-01-27T10:49:04.765Z,5.60
2019-01-27T10:50:04.492Z,5.60
2019-01-27T10:51:04.980Z,5.60
2019-01-27T10:52:05.520Z,5.60
2019-01-27T10:53:04.217Z,5.60
2019-01-27T10:54:04.468Z,5.50
2019-01-27T10:55:04.835Z,5.50
2019-01-27T10:56:05.039Z,5.50
2019-01-27T10:57:04.406Z,5.50
2019-01-27T10:58:04.437Z,5.50
2019-01-27T10:59:05.125Z,5.50
2019-01-27T11:00:05.194Z,5.40
2019-01-27T11:01:04.402Z,5.40
2019-01-27T11:02:04.513Z,5.40
2019-01-27T11:03:04.953Z,5.40
2019-01-27T11:04:04.532Z,5.40
2019-01-27T11:05:04.849Z,5.40
2019-01-27T11:06:05.017Z,5.40
2019-01-27T11:07:04.321Z,5.40
2019-01-27T11:08:05.174Z,5.30
2019-01-27T11:09:04.930Z,5.40
2019-01-27T11:10:04.595Z,5.40
2019-01-27T11:11:04.679Z,5.40
2019-01-27T11:12:04.708Z,5.40
2019-01-27T11:13:04.402Z,5.40
2019-01-27T11:14:04.448Z,5.40
2019-01-27T11:15:04.858Z,5.40
2019-01-27T11:16:04.410Z,5.50
2019-01-27T11:17:04.924Z,5.50
2019-01-27T11:18:04.931Z,5.50
2019-01-27T11:19:05.154Z,5.50
2019-01-27T11:20:05.214Z,5.50
2019-01-27T11:21:04.637Z,5.60
2019-01-27T11:22:04.997Z,5.60
2019-01-27T11:23:04.407Z,5.60
2019-01-27T11:24:04.458Z,5.60
2019-01-27T11:25:04.655Z,5.60
2019-01-27T11:26:04.809Z,5.60
2019-01-27T11:27:05.043Z,5.60
2019-01-27T11:28:04.284Z,5.60
2019-01-27T11:29:09.551Z,5.60
2019-01-27T11:30:05.006Z,5.60
2019-01-27T11:31:04.217Z,5.70
2019-01-27T11:32:04.987Z,5.70
2019-01-27T11:33:04.321Z,5.70
2019-01-27T11:34:04.488Z,5.70
2019-01-27T11:35:04.723Z,5.70
2019-01-27T11:36:04.322Z,5.70
2019-01-27T11:37:04.677Z,5.80
2019-01-27T11:38:04.733Z,5.80
2019-01-27T11:39:05.055Z,5.80
2019-01-27T11:40:05.176Z,5.80
2019-01-27T11:41:04.790Z,5.90
2019-01-27T11:42:04.888Z,5.90
2019-01-27T11:43:05.057Z,5.90
2019-01-27T11:44:05.168Z,5.90
2019-01-27T11:45:04.344Z,6.00
2019-01-27T11:46:04.315Z,6.00
2019-01-27T11:47:04.789Z,6.00
2019-01-27T11:48:04.294Z,6.00
2019-01-27T11:49:05.027Z,6.00
2019-01-27T11:50:04.568Z,6.10
2019-01-27T11:51:04.998Z,6.10
2019-01-27T11:52:04.925Z,6.10
2019-01-27T11:53:04.687Z,6.10
2019-01-27T11:54:10.030Z,6.10
2019-01-27T11:55:05.078Z,6.10
2019-01-27T11:56:04.554Z,6.10
2019-01-27T11:57:05.173Z,6.10
2019-01-27T11:58:04.334Z,6.20
2019-01-27T11:59:04.796Z,6.20
2019-01-27T12:00:04.918Z,6.20
2019-01-27T12:01:04.324Z,6.20
2019-01-27T12:02:04.384Z,6.20
2019-01-27T12:03:04.826Z,6.30
2019-01-27T12:04:04.912Z,6.30
2019-01-27T12:05:05.534Z,6.30
2019-01-27T12:06:04.290Z,6.40
2019-01-27T12:07:04.581Z,6.40
2019-01-27T12:08:04.713Z,6.50
2019-01-27T12:09:04.358Z,6.50
2019-01-27T12:10:04.483Z,6.50
2019-01-27T12:11:04.799Z,6.60
2019-01-27T12:12:04.905Z,6.60
2019-01-27T12:13:04.322Z,6.60
2019-01-27T12:14:04.308Z,6.70
2019-01-27T12:15:04.835Z,6.70
2019-01-27T12:16:04.400Z,6.80
2019-01-27T12:17:04.994Z,6.80
2019-01-27T12:18:05.103Z,6.80
2019-01-27T12:19:04.274Z,6.80
2019-01-27T12:20:04.907Z,6.90
2019-01-27T12:21:04.734Z,6.90
2019-01-27T12:22:04.682Z,6.90
2019-01-27T12:23:04.250Z,6.90
2019-01-27T12:24:04.705Z,6.90
2019-01-27T12:25:05.072Z,7.00
2019-01-27T12:26:04.590Z,6.90
2019-01-27T12:27:04.747Z,7.00
2019-01-27T12:28:04.766Z,7.00
2019-01-27T12:29:09.465Z,6.90
2019-01-27T12:30:04.337Z,6.90
2019-01-27T12:31:04.519Z,6.90
2019-01-27T12:32:04.827Z,6.90
2019-01-27T12:33:04.937Z,6.80
2019-01-27T12:34:04.517Z,6.80
2019-01-27T12:35:04.961Z,6.80
2019-01-27T12:36:04.554Z,6.80
2019-01-27T12:37:04.594Z,6.80
2019-01-27T12:38:04.728Z,6.80
2019-01-27T12:39:05.026Z,6.80
2019-01-27T12:40:04.568Z,6.80
2019-01-27T12:41:04.655Z,6.80
2019-01-27T12:42:04.648Z,6.70
2019-01-27T12:43:04.902Z,6.80
2019-01-27T12:44:04.327Z,6.80
2019-01-27T12:45:04.987Z,6.80
2019-01-27T12:46:05.163Z,6.80
2019-01-27T12:47:04.530Z,6.90
2019-01-27T12:48:04.545Z,6.90
2019-01-27T12:49:04.731Z,6.90
2019-01-27T12:50:05.143Z,6.90
2019-01-27T12:51:04.511Z,6.90
2019-01-27T12:52:04.571Z,6.90
2019-01-27T12:53:04.626Z,7.00
2019-01-27T12:54:04.684Z,7.00
2019-01-27T12:55:05.095Z,7.00
2019-01-27T12:56:04.456Z,7.00
2019-01-27T12:57:04.824Z,7.00
2019-01-27T12:58:04.898Z,7.00
2019-01-27T12:59:04.521Z,7.00
2019-01-27T13:00:04.735Z,7.00
2019-01-27T13:01:05.157Z,7.00
2019-01-27T13:02:04.695Z,7.00
2019-01-27T13:03:04.703Z,7.00
2019-01-27T13:04:04.252Z,7.00
2019-01-27T13:05:04.286Z,7.00
2019-01-27T13:06:04.454Z,7.00
2019-01-27T13:07:04.695Z,7.00
2019-01-27T13:08:04.758Z,7.00
2019-01-27T13:09:04.905Z,7.00
2019-01-27T13:10:04.424Z,7.00
2019-01-27T13:11:05.764Z,7.00
2019-01-27T13:12:04.658Z,7.00
2019-01-27T13:13:05.079Z,7.00
2019-01-27T13:14:05.115Z,7.10
2019-01-27T13:15:05.079Z,7.10
2019-01-27T13:16:04.439Z,7.10
2019-01-27T13:17:07.479Z,7.10
2019-01-27T13:18:05.232Z,7.10